sensor_id;sensor_type;location;lat;lon;timestamp;temperature;humidity
22813;DHT22;11573;51.334;3.244;2023-07-29T00:01:57;17.20;99.90
22813;DHT22;11573;51.334;3.244;2023-07-29T00:04:24;17.20;99.90
22813;DHT22;11573;51.334;3.244;2023-07-29T00:06:51;17.30;99.90
22813;DHT22;11573;51.334;3.244;2023-07-29T00:09:18;17.30;99.90
22813;DHT22;11573;51.334;3.244;2023-07-29T00:11:45;17.30;99.90
22813;DHT22;11573;51.334;3.244;2023-07-29T00:14:12;17.30;99.90
22813;DHT22;11573;51.334;3.244;2023-07-29T00:16:39;17.20;99.90
22813;DHT22;11573;51.334;3.244;2023-07-29T00:19:06;17.30;99.90
22813;DHT22;11573;51.334;3.244;2023-07-29T00:21:33;17.30;99.90
22813;DHT22;11573;51.334;3.244;2023-07-29T00:24:01;17.20;99.90
22813;DHT22;11573;51.334;3.244;2023-07-29T00:26:28;17.20;99.90
22813;DHT22;11573;51.334;3.244;2023-07-29T00:28:57;17.20;99.90
22813;DHT22;11573;51.334;3.244;2023-07-29T00:31:24;17.20;99.90
22813;DHT22;11573;51.334;3.244;2023-07-29T00:33:51;17.20;99.90
22813;DHT22;11573;51.334;3.244;2023-07-29T00:36:19;17.30;99.90
22813;DHT22;11573;51.334;3.244;2023-07-29T00:38:47;17.30;99.90
22813;DHT22;11573;51.334;3.244;2023-07-29T00:41:15;17.20;99.90
22813;DHT22;11573;51.334;3.244;2023-07-29T00:43:42;17.20;99.90
22813;DHT22;11573;51.334;3.244;2023-07-29T00:46:09;17.20;99.90
22813;DHT22;11573;51.334;3.244;2023-07-29T00:48:37;17.00;99.90
22813;DHT22;11573;51.334;3.244;2023-07-29T00:51:04;17.10;99.90
22813;DHT22;11573;51.334;3.244;2023-07-29T00:53:32;17.10;99.90
22813;DHT22;11573;51.334;3.244;2023-07-29T00:56:00;17.10;99.90
22813;DHT22;11573;51.334;3.244;2023-07-29T00:58:28;17.00;99.90
22813;DHT22;11573;51.334;3.244;2023-07-29T01:00:56;17.00;99.90
22813;DHT22;11573;51.334;3.244;2023-07-29T01:03:23;17.00;99.90
22813;DHT22;11573;51.334;3.244;2023-07-29T01:09:03;17.00;99.90
22813;DHT22;11573;51.334;3.244;2023-07-29T01:16:56;17.00;99.90
22813;DHT22;11573;51.334;3.244;2023-07-29T01:22:25;17.10;99.90
22813;DHT22;11573;51.334;3.244;2023-07-29T01:24:52;17.00;99.90
22813;DHT22;11573;51.334;3.244;2023-07-29T01:27:19;17.00;99.90
22813;DHT22;11573;51.334;3.244;2023-07-29T01:29:46;17.00;99.90
22813;DHT22;11573;51.334;3.244;2023-07-29T01:32:19;17.10;99.90
22813;DHT22;11573;51.334;3.244;2023-07-29T01:34:56;17.10;99.90
22813;DHT22;11573;51.334;3.244;2023-07-29T01:37:31;17.10;99.90
22813;DHT22;11573;51.334;3.244;2023-07-29T01:40:00;17.10;99.90
22813;DHT22;11573;51.334;3.244;2023-07-29T01:42:29;17.10;99.90
22813;DHT22;11573;51.334;3.244;2023-07-29T01:44:56;17.10;99.90
22813;DHT22;11573;51.334;3.244;2023-07-29T01:47:25;17.10;99.90
22813;DHT22;11573;51.334;3.244;2023-07-29T01:49:54;17.10;99.90
22813;DHT22;11573;51.334;3.244;2023-07-29T01:52:21;17.10;99.90
22813;DHT22;11573;51.334;3.244;2023-07-29T01:54:48;17.00;99.90
22813;DHT22;11573;51.334;3.244;2023-07-29T01:57:15;17.00;99.90
22813;DHT22;11573;51.334;3.244;2023-07-29T01:59:42;17.00;99.90
22813;DHT22;11573;51.334;3.244;2023-07-29T02:02:09;17.00;99.90
22813;DHT22;11573;51.334;3.244;2023-07-29T02:04:37;17.10;99.90
22813;DHT22;11573;51.334;3.244;2023-07-29T02:07:04;17.10;99.90
22813;DHT22;11573;51.334;3.244;2023-07-29T02:09:31;17.10;99.90
22813;DHT22;11573;51.334;3.244;2023-07-29T02:11:58;17.00;99.90
22813;DHT22;11573;51.334;3.244;2023-07-29T02:14:25;17.00;99.90
22813;DHT22;11573;51.334;3.244;2023-07-29T02:16:52;17.00;99.90
22813;DHT22;11573;51.334;3.244;2023-07-29T02:19:19;17.00;99.90
22813;DHT22;11573;51.334;3.244;2023-07-29T02:21:46;17.00;99.90
22813;DHT22;11573;51.334;3.244;2023-07-29T02:24:13;17.00;99.90
22813;DHT22;11573;51.334;3.244;2023-07-29T02:26:41;16.90;99.90
22813;DHT22;11573;51.334;3.244;2023-07-29T02:29:08;16.90;99.90
22813;DHT22;11573;51.334;3.244;2023-07-29T02:31:35;16.90;99.90
22813;DHT22;11573;51.334;3.244;2023-07-29T02:34:04;16.80;99.90
22813;DHT22;11573;51.334;3.244;2023-07-29T02:36:31;16.80;99.90
22813;DHT22;11573;51.334;3.244;2023-07-29T02:38:58;16.80;99.90
22813;DHT22;11573;51.334;3.244;2023-07-29T02:41:25;16.80;99.90
22813;DHT22;11573;51.334;3.244;2023-07-29T02:43:52;16.80;99.90
22813;DHT22;11573;51.334;3.244;2023-07-29T02:46:19;16.80;99.90
22813;DHT22;11573;51.334;3.244;2023-07-29T02:48:47;16.80;99.90
22813;DHT22;11573;51.334;3.244;2023-07-29T02:51:14;16.80;99.90
22813;DHT22;11573;51.334;3.244;2023-07-29T02:53:41;16.80;99.90
22813;DHT22;11573;51.334;3.244;2023-07-29T02:56:08;16.80;99.90
22813;DHT22;11573;51.334;3.244;2023-07-29T02:58:37;16.80;99.90
22813;DHT22;11573;51.334;3.244;2023-07-29T03:01:05;16.80;99.90
22813;DHT22;11573;51.334;3.244;2023-07-29T03:03:33;16.80;99.90
22813;DHT22;11573;51.334;3.244;2023-07-29T03:06:06;16.80;99.90
22813;DHT22;11573;51.334;3.244;2023-07-29T03:08:34;16.80;99.90
22813;DHT22;11573;51.334;3.244;2023-07-29T03:11:13;16.80;99.90
22813;DHT22;11573;51.334;3.244;2023-07-29T03:13:40;16.80;99.90
22813;DHT22;11573;51.334;3.244;2023-07-29T03:16:17;16.90;99.90
22813;DHT22;11573;51.334;3.244;2023-07-29T03:18:50;16.90;99.90
22813;DHT22;11573;51.334;3.244;2023-07-29T03:21:17;16.90;99.90
22813;DHT22;11573;51.334;3.244;2023-07-29T03:23:44;16.90;99.90
22813;DHT22;11573;51.334;3.244;2023-07-29T03:26:11;16.80;99.90
22813;DHT22;11573;51.334;3.244;2023-07-29T03:28:40;16.80;99.90
22813;DHT22;11573;51.334;3.244;2023-07-29T03:31:08;16.80;99.90
22813;DHT22;11573;51.334;3.244;2023-07-29T03:33:36;16.80;99.90
22813;DHT22;11573;51.334;3.244;2023-07-29T03:36:03;16.90;99.90
22813;DHT22;11573;51.334;3.244;2023-07-29T03:38:30;16.90;99.90
22813;DHT22;11573;51.334;3.244;2023-07-29T03:40:59;16.90;99.90
22813;DHT22;11573;51.334;3.244;2023-07-29T03:43:28;16.90;99.90
22813;DHT22;11573;51.334;3.244;2023-07-29T03:45:57;16.90;99.90
22813;DHT22;11573;51.334;3.244;2023-07-29T03:48:24;17.00;99.90
22813;DHT22;11573;51.334;3.244;2023-07-29T03:50:51;17.00;99.90
22813;DHT22;11573;51.334;3.244;2023-07-29T03:53:18;17.00;99.90
22813;DHT22;11573;51.334;3.244;2023-07-29T03:55:45;17.00;99.90
22813;DHT22;11573;51.334;3.244;2023-07-29T03:58:13;17.00;99.90
22813;DHT22;11573;51.334;3.244;2023-07-29T04:00:40;17.00;99.90
22813;DHT22;11573;51.334;3.244;2023-07-29T04:03:08;17.00;99.90
22813;DHT22;11573;51.334;3.244;2023-07-29T04:05:35;17.10;99.90
22813;DHT22;11573;51.334;3.244;2023-07-29T04:08:02;17.00;99.90
22813;DHT22;11573;51.334;3.244;2023-07-29T04:10:29;17.20;99.90
22813;DHT22;11573;51.334;3.244;2023-07-29T04:12:58;17.20;99.90
22813;DHT22;11573;51.334;3.244;2023-07-29T04:15:25;17.20;99.90
22813;DHT22;11573;51.334;3.244;2023-07-29T04:17:52;17.30;99.90
22813;DHT22;11573;51.334;3.244;2023-07-29T04:20:19;17.20;99.90
22813;DHT22;11573;51.334;3.244;2023-07-29T04:22:46;17.30;99.90
22813;DHT22;11573;51.334;3.244;2023-07-29T04:25:13;17.30;99.90
22813;DHT22;11573;51.334;3.244;2023-07-29T04:27:40;17.30;99.90
22813;DHT22;11573;51.334;3.244;2023-07-29T04:30:08;17.40;99.90
22813;DHT22;11573;51.334;3.244;2023-07-29T04:32:35;17.40;99.90
22813;DHT22;11573;51.334;3.244;2023-07-29T04:35:06;17.40;99.90
22813;DHT22;11573;51.334;3.244;2023-07-29T04:37:36;17.40;99.90
22813;DHT22;11573;51.334;3.244;2023-07-29T04:40:03;17.40;99.90
22813;DHT22;11573;51.334;3.244;2023-07-29T04:42:30;17.40;99.90
22813;DHT22;11573;51.334;3.244;2023-07-29T04:44:57;17.40;99.90
22813;DHT22;11573;51.334;3.244;2023-07-29T04:47:24;17.40;99.90
22813;DHT22;11573;51.334;3.244;2023-07-29T04:49:53;17.50;99.90
22813;DHT22;11573;51.334;3.244;2023-07-29T04:52:20;17.60;99.90
22813;DHT22;11573;51.334;3.244;2023-07-29T04:54:48;17.60;99.90
22813;DHT22;11573;51.334;3.244;2023-07-29T04:57:15;17.80;99.90
22813;DHT22;11573;51.334;3.244;2023-07-29T04:59:42;18.40;99.90
22813;DHT22;11573;51.334;3.244;2023-07-29T05:02:09;18.60;99.90
22813;DHT22;11573;51.334;3.244;2023-07-29T05:04:36;18.60;99.90
22813;DHT22;11573;51.334;3.244;2023-07-29T05:07:04;19.50;99.90
22813;DHT22;11573;51.334;3.244;2023-07-29T05:09:31;20.10;99.90
22813;DHT22;11573;51.334;3.244;2023-07-29T05:11:58;19.90;99.90
22813;DHT22;11573;51.334;3.244;2023-07-29T05:14:25;19.40;99.90
22813;DHT22;11573;51.334;3.244;2023-07-29T05:16:52;19.00;99.90
22813;DHT22;11573;51.334;3.244;2023-07-29T05:19:18;18.80;99.90
22813;DHT22;11573;51.334;3.244;2023-07-29T05:21:45;18.60;99.90
22813;DHT22;11573;51.334;3.244;2023-07-29T05:24:13;18.60;99.90
22813;DHT22;11573;51.334;3.244;2023-07-29T05:26:40;18.50;99.90
22813;DHT22;11573;51.334;3.244;2023-07-29T05:29:07;18.50;99.90
22813;DHT22;11573;51.334;3.244;2023-07-29T05:31:34;18.60;99.90
22813;DHT22;11573;51.334;3.244;2023-07-29T05:34:01;18.80;99.90
22813;DHT22;11573;51.334;3.244;2023-07-29T05:36:29;18.90;99.90
22813;DHT22;11573;51.334;3.244;2023-07-29T05:38:56;18.80;99.90
22813;DHT22;11573;51.334;3.244;2023-07-29T05:41:23;18.90;99.90
22813;DHT22;11573;51.334;3.244;2023-07-29T05:43:50;19.50;99.90
22813;DHT22;11573;51.334;3.244;2023-07-29T05:46:18;19.70;99.90
22813;DHT22;11573;51.334;3.244;2023-07-29T05:48:44;19.80;99.90
22813;DHT22;11573;51.334;3.244;2023-07-29T05:51:12;19.90;99.90
22813;DHT22;11573;51.334;3.244;2023-07-29T05:53:39;19.80;99.90
22813;DHT22;11573;51.334;3.244;2023-07-29T05:56:06;19.50;99.90
22813;DHT22;11573;51.334;3.244;2023-07-29T05:58:33;19.40;99.90
22813;DHT22;11573;51.334;3.244;2023-07-29T06:01:00;19.20;99.90
22813;DHT22;11573;51.334;3.244;2023-07-29T06:03:27;19.20;99.90
22813;DHT22;11573;51.334;3.244;2023-07-29T06:05:55;19.40;99.90
22813;DHT22;11573;51.334;3.244;2023-07-29T06:08:21;19.60;99.90
22813;DHT22;11573;51.334;3.244;2023-07-29T06:10:49;19.70;99.90
22813;DHT22;11573;51.334;3.244;2023-07-29T06:13:16;19.50;99.90
22813;DHT22;11573;51.334;3.244;2023-07-29T06:15:43;19.40;99.90
22813;DHT22;11573;51.334;3.244;2023-07-29T06:18:10;19.30;99.90
22813;DHT22;11573;51.334;3.244;2023-07-29T06:20:37;19.20;99.90
22813;DHT22;11573;51.334;3.244;2023-07-29T06:23:05;19.10;99.90
22813;DHT22;11573;51.334;3.244;2023-07-29T06:25:32;19.00;99.90
22813;DHT22;11573;51.334;3.244;2023-07-29T06:27:59;19.20;99.90
22813;DHT22;11573;51.334;3.244;2023-07-29T06:30:26;19.20;99.90
22813;DHT22;11573;51.334;3.244;2023-07-29T06:32:54;19.10;99.90
22813;DHT22;11573;51.334;3.244;2023-07-29T06:35:21;19.00;99.90
22813;DHT22;11573;51.334;3.244;2023-07-29T06:37:48;18.90;99.90
22813;DHT22;11573;51.334;3.244;2023-07-29T06:40:15;18.70;99.90
22813;DHT22;11573;51.334;3.244;2023-07-29T06:42:42;18.70;99.90
22813;DHT22;11573;51.334;3.244;2023-07-29T06:45:10;18.80;99.90
22813;DHT22;11573;51.334;3.244;2023-07-29T06:47:37;18.80;99.90
22813;DHT22;11573;51.334;3.244;2023-07-29T06:50:04;18.90;99.90
22813;DHT22;11573;51.334;3.244;2023-07-29T06:52:31;19.20;99.90
22813;DHT22;11573;51.334;3.244;2023-07-29T06:54:58;19.40;99.90
22813;DHT22;11573;51.334;3.244;2023-07-29T06:57:25;19.60;99.90
22813;DHT22;11573;51.334;3.244;2023-07-29T06:59:52;19.80;99.90
22813;DHT22;11573;51.334;3.244;2023-07-29T07:02:19;20.00;99.90
22813;DHT22;11573;51.334;3.244;2023-07-29T07:04:46;20.00;99.90
22813;DHT22;11573;51.334;3.244;2023-07-29T07:07:13;20.10;99.90
22813;DHT22;11573;51.334;3.244;2023-07-29T07:09:40;20.30;99.90
22813;DHT22;11573;51.334;3.244;2023-07-29T07:12:07;20.40;99.90
22813;DHT22;11573;51.334;3.244;2023-07-29T07:14:34;20.40;99.90
22813;DHT22;11573;51.334;3.244;2023-07-29T07:17:01;20.50;99.90
22813;DHT22;11573;51.334;3.244;2023-07-29T07:19:28;20.60;99.90
22813;DHT22;11573;51.334;3.244;2023-07-29T07:21:55;20.60;99.90
22813;DHT22;11573;51.334;3.244;2023-07-29T07:24:22;20.70;99.90
22813;DHT22;11573;51.334;3.244;2023-07-29T07:26:49;20.90;99.90
22813;DHT22;11573;51.334;3.244;2023-07-29T07:29:16;21.10;99.90
22813;DHT22;11573;51.334;3.244;2023-07-29T07:31:52;21.30;99.90
22813;DHT22;11573;51.334;3.244;2023-07-29T07:34:20;21.50;99.90
22813;DHT22;11573;51.334;3.244;2023-07-29T07:36:47;21.70;99.90
22813;DHT22;11573;51.334;3.244;2023-07-29T07:39:15;22.00;99.90
22813;DHT22;11573;51.334;3.244;2023-07-29T07:41:42;21.80;99.90
22813;DHT22;11573;51.334;3.244;2023-07-29T07:44:09;21.30;99.90
22813;DHT22;11573;51.334;3.244;2023-07-29T07:46:37;21.00;99.90
22813;DHT22;11573;51.334;3.244;2023-07-29T07:49:05;20.70;99.90
22813;DHT22;11573;51.334;3.244;2023-07-29T07:51:32;20.60;99.90
22813;DHT22;11573;51.334;3.244;2023-07-29T07:53:59;20.30;99.90
22813;DHT22;11573;51.334;3.244;2023-07-29T07:56:26;20.30;99.90
22813;DHT22;11573;51.334;3.244;2023-07-29T07:58:52;20.50;99.90
22813;DHT22;11573;51.334;3.244;2023-07-29T08:01:19;20.80;99.90
22813;DHT22;11573;51.334;3.244;2023-07-29T08:03:47;21.10;99.90
22813;DHT22;11573;51.334;3.244;2023-07-29T08:06:14;21.50;99.90
22813;DHT22;11573;51.334;3.244;2023-07-29T08:08:40;21.80;99.90
22813;DHT22;11573;51.334;3.244;2023-07-29T08:11:08;22.00;99.90
22813;DHT22;11573;51.334;3.244;2023-07-29T08:13:35;22.10;99.90
22813;DHT22;11573;51.334;3.244;2023-07-29T08:16:02;21.80;99.90
22813;DHT22;11573;51.334;3.244;2023-07-29T08:18:29;21.30;99.90
22813;DHT22;11573;51.334;3.244;2023-07-29T08:20:57;20.70;99.90
22813;DHT22;11573;51.334;3.244;2023-07-29T08:23:25;20.40;99.90
22813;DHT22;11573;51.334;3.244;2023-07-29T08:25:54;20.20;99.90
22813;DHT22;11573;51.334;3.244;2023-07-29T08:28:23;20.20;99.90
22813;DHT22;11573;51.334;3.244;2023-07-29T08:30:50;20.00;99.90
22813;DHT22;11573;51.334;3.244;2023-07-29T08:33:18;20.00;99.90
22813;DHT22;11573;51.334;3.244;2023-07-29T08:35:44;20.10;99.90
22813;DHT22;11573;51.334;3.244;2023-07-29T08:38:11;19.90;99.90
22813;DHT22;11573;51.334;3.244;2023-07-29T08:43:30;19.80;99.90
22813;DHT22;11573;51.334;3.244;2023-07-29T08:46:00;19.60;99.90
22813;DHT22;11573;51.334;3.244;2023-07-29T08:48:40;19.50;99.90
22813;DHT22;11573;51.334;3.244;2023-07-29T08:51:09;19.40;99.90
22813;DHT22;11573;51.334;3.244;2023-07-29T08:53:37;19.30;99.90
22813;DHT22;11573;51.334;3.244;2023-07-29T08:56:06;19.20;99.90
22813;DHT22;11573;51.334;3.244;2023-07-29T08:58:33;19.20;99.90
22813;DHT22;11573;51.334;3.244;2023-07-29T09:01:01;19.10;99.90
22813;DHT22;11573;51.334;3.244;2023-07-29T09:03:28;19.10;99.90
22813;DHT22;11573;51.334;3.244;2023-07-29T09:05:57;19.00;99.90
22813;DHT22;11573;51.334;3.244;2023-07-29T09:08:26;18.80;99.90
22813;DHT22;11573;51.334;3.244;2023-07-29T09:10:54;18.70;99.90
22813;DHT22;11573;51.334;3.244;2023-07-29T09:13:22;18.60;99.90
22813;DHT22;11573;51.334;3.244;2023-07-29T09:15:49;18.50;99.90
22813;DHT22;11573;51.334;3.244;2023-07-29T09:18:19;18.50;99.90
22813;DHT22;11573;51.334;3.244;2023-07-29T09:20:47;18.60;99.90
22813;DHT22;11573;51.334;3.244;2023-07-29T09:23:15;18.60;99.90
22813;DHT22;11573;51.334;3.244;2023-07-29T09:25:42;18.80;99.90
22813;DHT22;11573;51.334;3.244;2023-07-29T09:28:12;18.90;99.90
22813;DHT22;11573;51.334;3.244;2023-07-29T09:30:40;19.00;99.90
22813;DHT22;11573;51.334;3.244;2023-07-29T09:33:09;19.40;99.90
22813;DHT22;11573;51.334;3.244;2023-07-29T09:35:37;19.60;99.90
22813;DHT22;11573;51.334;3.244;2023-07-29T09:38:05;20.20;99.90
22813;DHT22;11573;51.334;3.244;2023-07-29T09:40:38;20.90;99.90
22813;DHT22;11573;51.334;3.244;2023-07-29T09:43:06;20.80;99.90
22813;DHT22;11573;51.334;3.244;2023-07-29T09:45:34;21.30;99.90
22813;DHT22;11573;51.334;3.244;2023-07-29T09:48:03;21.50;99.90
22813;DHT22;11573;51.334;3.244;2023-07-29T09:50:31;21.60;99.90
22813;DHT22;11573;51.334;3.244;2023-07-29T09:52:58;21.60;99.90
22813;DHT22;11573;51.334;3.244;2023-07-29T09:55:26;21.60;99.90
22813;DHT22;11573;51.334;3.244;2023-07-29T09:57:56;21.20;99.90
22813;DHT22;11573;51.334;3.244;2023-07-29T10:00:23;20.80;99.90
22813;DHT22;11573;51.334;3.244;2023-07-29T10:02:51;20.50;99.90
22813;DHT22;11573;51.334;3.244;2023-07-29T10:05:19;20.30;99.90
22813;DHT22;11573;51.334;3.244;2023-07-29T10:07:47;20.30;99.90
22813;DHT22;11573;51.334;3.244;2023-07-29T10:10:15;20.50;99.90
22813;DHT22;11573;51.334;3.244;2023-07-29T10:12:43;20.90;99.90
22813;DHT22;11573;51.334;3.244;2023-07-29T10:15:10;21.20;99.90
22813;DHT22;11573;51.334;3.244;2023-07-29T10:17:38;21.40;99.90
22813;DHT22;11573;51.334;3.244;2023-07-29T10:20:10;21.80;99.90
22813;DHT22;11573;51.334;3.244;2023-07-29T10:22:42;21.90;99.90
22813;DHT22;11573;51.334;3.244;2023-07-29T10:25:19;22.40;99.90
22813;DHT22;11573;51.334;3.244;2023-07-29T10:30:15;22.70;99.90
22813;DHT22;11573;51.334;3.244;2023-07-29T10:32:43;23.00;99.90
22813;DHT22;11573;51.334;3.244;2023-07-29T10:35:12;23.20;99.90
22813;DHT22;11573;51.334;3.244;2023-07-29T10:37:40;23.30;99.90
22813;DHT22;11573;51.334;3.244;2023-07-29T10:40:10;22.90;99.90
22813;DHT22;11573;51.334;3.244;2023-07-29T10:42:38;23.10;99.90
22813;DHT22;11573;51.334;3.244;2023-07-29T10:45:21;23.40;99.90
22813;DHT22;11573;51.334;3.244;2023-07-29T10:47:48;23.20;99.90
22813;DHT22;11573;51.334;3.244;2023-07-29T10:50:20;23.30;99.90
22813;DHT22;11573;51.334;3.244;2023-07-29T10:52:52;23.40;99.90
22813;DHT22;11573;51.334;3.244;2023-07-29T10:55:31;23.30;99.90
22813;DHT22;11573;51.334;3.244;2023-07-29T10:58:13;23.40;99.90
22813;DHT22;11573;51.334;3.244;2023-07-29T11:00:44;23.20;99.90
22813;DHT22;11573;51.334;3.244;2023-07-29T11:03:13;22.90;99.90
22813;DHT22;11573;51.334;3.244;2023-07-29T11:05:50;22.70;99.90
22813;DHT22;11573;51.334;3.244;2023-07-29T11:08:18;22.70;99.90
22813;DHT22;11573;51.334;3.244;2023-07-29T11:11:07;22.30;99.90
22813;DHT22;11573;51.334;3.244;2023-07-29T11:13:36;22.30;99.90
22813;DHT22;11573;51.334;3.244;2023-07-29T11:16:04;22.50;99.90
22813;DHT22;11573;51.334;3.244;2023-07-29T11:18:33;22.50;99.90
22813;DHT22;11573;51.334;3.244;2023-07-29T11:21:02;22.60;99.90
22813;DHT22;11573;51.334;3.244;2023-07-29T11:23:36;22.90;99.90
22813;DHT22;11573;51.334;3.244;2023-07-29T11:26:04;23.40;99.90
22813;DHT22;11573;51.334;3.244;2023-07-29T11:28:38;23.80;99.90
22813;DHT22;11573;51.334;3.244;2023-07-29T11:31:05;24.20;99.90
22813;DHT22;11573;51.334;3.244;2023-07-29T11:33:33;24.10;99.90
22813;DHT22;11573;51.334;3.244;2023-07-29T11:36:00;24.00;99.90
22813;DHT22;11573;51.334;3.244;2023-07-29T11:38:26;23.80;99.90
22813;DHT22;11573;51.334;3.244;2023-07-29T11:41:00;23.60;99.90
22813;DHT22;11573;51.334;3.244;2023-07-29T11:43:27;23.60;99.90
22813;DHT22;11573;51.334;3.244;2023-07-29T11:45:54;23.60;99.90
22813;DHT22;11573;51.334;3.244;2023-07-29T11:48:30;23.70;99.90
22813;DHT22;11573;51.334;3.244;2023-07-29T11:50:58;23.90;99.90
22813;DHT22;11573;51.334;3.244;2023-07-29T11:53:29;23.80;99.90
22813;DHT22;11573;51.334;3.244;2023-07-29T11:55:58;24.00;99.90
22813;DHT22;11573;51.334;3.244;2023-07-29T11:58:26;24.30;99.90
22813;DHT22;11573;51.334;3.244;2023-07-29T12:00:53;24.40;99.90
22813;DHT22;11573;51.334;3.244;2023-07-29T12:03:20;24.50;99.90
22813;DHT22;11573;51.334;3.244;2023-07-29T12:05:48;24.60;99.90
22813;DHT22;11573;51.334;3.244;2023-07-29T12:08:16;24.80;99.90
22813;DHT22;11573;51.334;3.244;2023-07-29T12:10:43;25.00;99.90
22813;DHT22;11573;51.334;3.244;2023-07-29T12:13:10;25.20;99.90
22813;DHT22;11573;51.334;3.244;2023-07-29T12:15:38;24.90;99.90
22813;DHT22;11573;51.334;3.244;2023-07-29T12:18:06;24.50;99.90
22813;DHT22;11573;51.334;3.244;2023-07-29T12:20:34;24.00;99.90
22813;DHT22;11573;51.334;3.244;2023-07-29T12:23:01;24.10;99.90
22813;DHT22;11573;51.334;3.244;2023-07-29T12:25:30;24.20;99.90
22813;DHT22;11573;51.334;3.244;2023-07-29T12:28:01;24.40;99.90
22813;DHT22;11573;51.334;3.244;2023-07-29T12:30:28;24.40;99.90
22813;DHT22;11573;51.334;3.244;2023-07-29T12:32:55;24.50;99.90
22813;DHT22;11573;51.334;3.244;2023-07-29T12:35:23;24.40;99.90
22813;DHT22;11573;51.334;3.244;2023-07-29T12:38:02;24.40;99.90
22813;DHT22;11573;51.334;3.244;2023-07-29T12:40:29;24.00;99.90
22813;DHT22;11573;51.334;3.244;2023-07-29T12:42:56;24.20;99.90
22813;DHT22;11573;51.334;3.244;2023-07-29T12:45:23;24.40;99.90
22813;DHT22;11573;51.334;3.244;2023-07-29T12:47:53;24.50;99.90
22813;DHT22;11573;51.334;3.244;2023-07-29T12:50:21;24.80;99.90
22813;DHT22;11573;51.334;3.244;2023-07-29T12:52:48;25.10;99.90
22813;DHT22;11573;51.334;3.244;2023-07-29T12:55:15;24.50;99.90
22813;DHT22;11573;51.334;3.244;2023-07-29T12:57:44;24.20;99.90
22813;DHT22;11573;51.334;3.244;2023-07-29T13:00:11;24.10;99.90
22813;DHT22;11573;51.334;3.244;2023-07-29T13:02:39;24.00;99.90
22813;DHT22;11573;51.334;3.244;2023-07-29T13:05:11;23.90;99.90
22813;DHT22;11573;51.334;3.244;2023-07-29T13:07:42;23.90;99.90
22813;DHT22;11573;51.334;3.244;2023-07-29T13:10:10;23.90;99.90
22813;DHT22;11573;51.334;3.244;2023-07-29T13:12:37;24.00;99.90
22813;DHT22;11573;51.334;3.244;2023-07-29T13:15:05;24.20;99.90
22813;DHT22;11573;51.334;3.244;2023-07-29T13:17:33;24.10;99.90
22813;DHT22;11573;51.334;3.244;2023-07-29T13:20:00;23.80;99.90
22813;DHT22;11573;51.334;3.244;2023-07-29T13:22:27;24.00;99.90
22813;DHT22;11573;51.334;3.244;2023-07-29T13:24:54;24.20;99.90
22813;DHT22;11573;51.334;3.244;2023-07-29T13:27:21;24.00;99.90
22813;DHT22;11573;51.334;3.244;2023-07-29T13:29:49;24.00;99.90
22813;DHT22;11573;51.334;3.244;2023-07-29T13:32:16;23.70;99.90
22813;DHT22;11573;51.334;3.244;2023-07-29T13:34:43;23.20;99.90
22813;DHT22;11573;51.334;3.244;2023-07-29T13:37:10;23.10;99.90
22813;DHT22;11573;51.334;3.244;2023-07-29T13:39:37;23.00;99.90
22813;DHT22;11573;51.334;3.244;2023-07-29T13:42:04;23.00;99.90
22813;DHT22;11573;51.334;3.244;2023-07-29T13:44:31;23.00;99.90
22813;DHT22;11573;51.334;3.244;2023-07-29T13:46:58;23.00;99.90
22813;DHT22;11573;51.334;3.244;2023-07-29T13:49:25;22.80;99.90
22813;DHT22;11573;51.334;3.244;2023-07-29T13:51:52;23.10;99.90
22813;DHT22;11573;51.334;3.244;2023-07-29T13:54:19;23.60;99.90
22813;DHT22;11573;51.334;3.244;2023-07-29T13:56:46;23.90;99.90
22813;DHT22;11573;51.334;3.244;2023-07-29T13:59:13;23.80;99.90
22813;DHT22;11573;51.334;3.244;2023-07-29T14:01:40;23.90;99.90
22813;DHT22;11573;51.334;3.244;2023-07-29T14:04:07;24.00;99.90
22813;DHT22;11573;51.334;3.244;2023-07-29T14:06:33;24.10;99.90
22813;DHT22;11573;51.334;3.244;2023-07-29T14:09:12;24.30;99.90
22813;DHT22;11573;51.334;3.244;2023-07-29T14:11:39;23.90;99.90
22813;DHT22;11573;51.334;3.244;2023-07-29T14:14:07;23.60;99.90
22813;DHT22;11573;51.334;3.244;2023-07-29T14:16:34;23.40;99.90
22813;DHT22;11573;51.334;3.244;2023-07-29T14:19:02;23.50;99.90
22813;DHT22;11573;51.334;3.244;2023-07-29T14:21:29;23.50;99.90
22813;DHT22;11573;51.334;3.244;2023-07-29T14:23:56;23.50;99.90
22813;DHT22;11573;51.334;3.244;2023-07-29T14:26:23;23.50;99.90
22813;DHT22;11573;51.334;3.244;2023-07-29T14:28:50;23.50;99.90
22813;DHT22;11573;51.334;3.244;2023-07-29T14:31:17;23.60;99.90
22813;DHT22;11573;51.334;3.244;2023-07-29T14:33:44;23.90;99.90
22813;DHT22;11573;51.334;3.244;2023-07-29T14:36:11;24.20;99.90
22813;DHT22;11573;51.334;3.244;2023-07-29T14:38:38;24.30;99.90
22813;DHT22;11573;51.334;3.244;2023-07-29T14:41:05;24.20;99.90
22813;DHT22;11573;51.334;3.244;2023-07-29T14:43:33;23.80;99.90
22813;DHT22;11573;51.334;3.244;2023-07-29T14:46:00;23.90;99.90
22813;DHT22;11573;51.334;3.244;2023-07-29T14:48:27;24.10;99.90
22813;DHT22;11573;51.334;3.244;2023-07-29T14:50:54;24.00;99.90
22813;DHT22;11573;51.334;3.244;2023-07-29T14:53:21;24.10;99.90
22813;DHT22;11573;51.334;3.244;2023-07-29T14:55:48;23.90;99.90
22813;DHT22;11573;51.334;3.244;2023-07-29T14:58:15;23.80;99.90
22813;DHT22;11573;51.334;3.244;2023-07-29T15:00:42;24.00;99.90
22813;DHT22;11573;51.334;3.244;2023-07-29T15:03:09;24.30;99.90
22813;DHT22;11573;51.334;3.244;2023-07-29T15:05:36;24.10;99.90
22813;DHT22;11573;51.334;3.244;2023-07-29T15:08:03;23.90;99.90
22813;DHT22;11573;51.334;3.244;2023-07-29T15:10:30;23.50;99.90
22813;DHT22;11573;51.334;3.244;2023-07-29T15:12:58;23.50;99.90
22813;DHT22;11573;51.334;3.244;2023-07-29T15:15:24;23.50;99.90
22813;DHT22;11573;51.334;3.244;2023-07-29T15:17:51;23.30;99.90
22813;DHT22;11573;51.334;3.244;2023-07-29T15:20:19;23.40;99.90
22813;DHT22;11573;51.334;3.244;2023-07-29T15:22:46;23.50;99.90
22813;DHT22;11573;51.334;3.244;2023-07-29T15:25:13;23.10;99.90
22813;DHT22;11573;51.334;3.244;2023-07-29T15:27:40;23.20;99.90
22813;DHT22;11573;51.334;3.244;2023-07-29T15:30:07;23.00;99.90
22813;DHT22;11573;51.334;3.244;2023-07-29T15:32:34;23.30;99.90
22813;DHT22;11573;51.334;3.244;2023-07-29T15:35:02;23.50;99.90
22813;DHT22;11573;51.334;3.244;2023-07-29T15:37:29;23.60;99.90
22813;DHT22;11573;51.334;3.244;2023-07-29T15:39:55;23.70;99.90
22813;DHT22;11573;51.334;3.244;2023-07-29T15:42:23;23.70;99.90
22813;DHT22;11573;51.334;3.244;2023-07-29T15:44:50;23.50;99.90
22813;DHT22;11573;51.334;3.244;2023-07-29T15:47:17;23.60;99.90
22813;DHT22;11573;51.334;3.244;2023-07-29T15:49:46;23.60;99.90
22813;DHT22;11573;51.334;3.244;2023-07-29T15:52:13;23.80;99.90